Time;durP1;ratioP1;P1;durP2;ratioP2;P2;SDS_P1;SDS_P2;PMS_P1;PMS_P2;Temp;Humidity;BMP_temperature;BMP_pressure;BME280_temperature;BME280_humidity;BME280_pressure;Samples;Min_cycle;Max_cycle;Signal;HPM_P1;HPM_P2
2022/12/05 12:28:33;;;;;;;15.70;14.57;;;18.10;99.90;;;;;;5233553;23;20048;-91
2022/12/05 12:31:34;;;;;;;15.23;14.32;;;18.20;99.90;;;;;;4926800;29;20027;-92
2022/12/05 12:34:44;;;;;;;17.10;15.63;;;18.30;99.90;;;;;;4900175;29;20044;-91
2022/12/05 12:37:40;;;;;;;16.65;15.18;;;18.40;99.90;;;;;;4868411;29;20037;-89
2022/12/05 12:40:53;;;;;;;16.05;15.02;;;18.40;99.90;;;;;;4869152;29;20036;-90
2022/12/05 12:43:39;;;;;;;16.45;15.32;;;18.20;99.90;;;;;;4792326;29;20245;-92
2022/12/05 12:46:29;;;;;;;15.88;14.77;;;18.00;99.90;;;;;;4791789;29;20035;-90
2022/12/05 12:49:20;;;;;;;17.98;16.67;;;18.00;99.90;;;;;;4776959;29;20062;-93
2022/12/05 12:52:00;;;;;;;17.45;16.40;;;18.10;99.90;;;;;;4791721;29;20071;-92
2022/12/05 12:54:41;;;;;;;16.55;15.45;;;18.10;99.90;;;;;;4791943;29;20039;-92
2022/12/05 12:57:33;;;;;;;16.85;15.57;;;18.10;99.90;;;;;;4791549;29;20110;-91
2022/12/05 13:00:22;;;;;;;17.50;16.20;;;18.10;99.90;;;;;;4777485;29;20125;-91
2022/12/05 13:03:05;;;;;;;17.23;16.13;;;18.10;99.90;;;;;;4791754;29;20169;-93
2022/12/05 13:05:50;;;;;;;18.08;16.80;;;18.10;99.90;;;;;;4791596;29;20035;-91
2022/12/05 13:08:49;;;;;;;19.10;17.50;;;18.00;99.90;;;;;;4791519;29;20034;-95
2022/12/05 13:11:19;;;;;;;17.65;16.50;;;18.00;99.90;;;;;;4835606;29;20444;-91
2022/12/05 13:13:58;;;;;;;18.95;17.33;;;18.00;99.90;;;;;;4848832;29;20029;-92
2022/12/05 13:16:39;;;;;;;19.25;17.77;;;17.90;99.90;;;;;;4866844;29;20133;-91
2022/12/05 13:19:12;;;;;;;19.83;18.17;;;17.90;99.90;;;;;;4942839;28;20034;-92
2022/12/05 13:21:40;;;;;;;18.42;17.23;;;17.80;99.90;;;;;;4943157;28;20054;-92
2022/12/05 13:24:13;;;;;;;19.00;17.58;;;17.80;99.90;;;;;;4942940;28;20130;-94
2022/12/05 13:26:47;;;;;;;19.98;18.63;;;17.80;99.90;;;;;;4959342;28;20031;-92
2022/12/05 13:29:31;;;;;;;19.48;18.05;;;17.70;99.90;;;;;;4943093;28;20038;-93
2022/12/05 13:32:01;;;;;;;19.05;17.83;;;17.70;99.90;;;;;;4943212;28;20415;-94
2022/12/05 13:34:32;;;;;;;19.75;18.25;;;17.70;99.90;;;;;;4942963;28;20035;-93
2022/12/05 15:16:37;;;;;;;11.55;6.63;;;14.50;99.90;;;;;;4951998;29;20492;-92
2022/12/05 15:19:30;;;;;;;10.50;7.38;;;14.40;99.90;;;;;;4939461;29;20492;-94
2022/12/05 15:22:01;;;;;;;8.25;6.88;;;14.30;99.90;;;;;;4906938;29;20481;-93
2022/12/05 15:24:50;;;;;;;14.82;6.63;;;14.20;99.90;;;;;;4905689;29;20441;-93
2022/12/05 15:27:17;;;;;;;10.35;6.68;;;14.10;99.90;;;;;;4906722;29;20046;-94
2022/12/05 15:29:45;;;;;;;8.73;6.70;;;14.10;99.90;;;;;;4927535;29;20032;-93
2022/12/05 15:32:19;;;;;;;14.95;8.13;;;14.00;99.90;;;;;;4916647;29;20044;-94
2022/12/05 15:35:13;;;;;;;14.18;8.23;;;14.00;99.90;;;;;;4958655;28;20074;-94
2022/12/05 15:38:36;;;;;;;20.85;8.68;;;14.00;99.90;;;;;;5049143;23;20052;-95
2022/12/05 15:41:26;;;;;;;13.77;8.02;;;13.90;99.90;;;;;;4872664;29;20039;-95
2022/12/05 15:44:19;;;;;;;12.48;8.82;;;13.80;99.90;;;;;;4875118;29;20049;-94
2022/12/05 15:47:47;;;;;;;16.40;9.85;;;13.60;99.90;;;;;;4876303;29;20105;-94
2022/12/05 15:59:32;;;;;;;19.80;11.57;;;13.20;99.90;;;;;;5001298;23;20047;-93
2022/12/05 16:22:09;;;;;;;20.08;11.50;;;12.70;99.90;;;;;;5067733;27;1994613;-93
2022/12/05 16:24:53;;;;;;;19.33;10.52;;;12.60;99.90;;;;;;5011923;28;20030;-94
2022/12/05 16:27:27;;;;;;;19.95;10.70;;;12.60;99.90;;;;;;5076974;28;20028;-92
2022/12/05 16:30:11;;;;;;;22.15;11.93;;;12.50;99.90;;;;;;5073284;28;20072;-93
2022/12/05 16:32:40;;;;;;;26.65;12.30;;;12.50;99.90;;;;;;5076353;28;20047;-91
2022/12/05 16:35:30;;;;;;;22.67;11.00;;;12.40;99.90;;;;;;5078639;28;20024;-93
2022/12/05 16:38:16;;;;;;;22.75;11.93;;;12.30;99.90;;;;;;5075774;28;20545;-94
2022/12/05 16:40:48;;;;;;;28.92;15.95;;;12.30;99.90;;;;;;5076030;28;20036;-92
2022/12/05 19:32:58;;;;;;;99.45;61.67;;;10.90;99.90;;;;;;4811861;29;20087;-93
2022/12/05 19:35:24;;;;;;;;;;;10.90;99.90;;;;;;4894255;23;20198;-92
2022/12/05 19:38:35;;;;;;;79.03;50.65;;;10.90;99.90;;;;;;4908724;29;19915;-92
2022/12/05 19:41:05;;;;;;;90.45;53.85;;;11.00;99.90;;;;;;4886531;29;20049;-93
2022/12/05 19:43:34;;;;;;;94.03;59.38;;;10.90;99.90;;;;;;4857064;29;20033;-93
2022/12/05 19:46:53;;;;;;;;;;;;;;;;;;;;;
2022/12/05 19:49:48;;;;;;;71.45;48.75;;;10.90;99.90;;;;;;4899772;29;20064;-93
2022/12/05 19:52:37;;;;;;;91.65;56.05;;;10.90;99.90;;;;;;4884900;29;20047;-93
2022/12/05 19:55:06;;;;;;;79.18;50.30;;;10.90;99.90;;;;;;4900685;29;20474;-92
2022/12/05 19:57:35;;;;;;;81.43;48.65;;;10.80;99.90;;;;;;4867688;29;20076;-94
2022/12/05 20:00:02;;;;;;;85.40;51.80;;;10.80;99.90;;;;;;4868229;29;20044;-93
2022/12/05 20:02:38;;;;;;;96.90;55.47;;;10.90;99.90;;;;;;4883993;29;20029;-94
2022/12/05 20:05:36;;;;;;;72.38;47.08;;;10.90;99.90;;;;;;4882668;29;20032;-93
2022/12/05 20:08:16;;;;;;;75.72;49.15;;;10.80;99.90;;;;;;4900193;29;20123;-94
2022/12/05 20:11:47;;;;;;;74.28;47.72;;;10.70;99.90;;;;;;4889793;29;20052;-93
2022/12/05 20:14:23;;;;;;;72.85;47.78;;;10.60;99.90;;;;;;4898253;29;20033;-93
2022/12/05 20:16:50;;;;;;;79.53;48.33;;;10.50;99.90;;;;;;4882938;29;20036;-94
2022/12/05 20:19:36;;;;;;;77.13;50.20;;;10.40;99.90;;;;;;4868359;29;20040;-94
2022/12/05 20:25:42;;;;;;;104.45;55.15;;;10.40;99.90;;;;;;4923435;23;20080;-94
2022/12/05 20:28:09;;;;;;;94.03;61.20;;;10.40;99.90;;;;;;4916914;29;20056;-93
2022/12/05 20:39:11;;;;;;;133.45;69.18;;;10.20;99.90;;;;;;5921434;23;20053;-92
2022/12/05 20:41:37;;;;;;;92.30;51.60;;;10.20;99.90;;;;;;4945432;29;20039;-91
2022/12/05 20:44:10;;;;;;;82.60;47.63;;;10.10;99.90;;;;;;4938289;29;20156;-92
2022/12/05 20:46:36;;;;;;;80.28;46.22;;;10.10;99.90;;;;;;4920850;29;20036;-92
2022/12/05 20:49:32;;;;;;;85.38;52.42;;;10.00;99.90;;;;;;4904145;29;20024;-93
2022/12/05 20:52:07;;;;;;;110.38;63.08;;;10.00;99.90;;;;;;4905264;29;20036;-92
2022/12/05 20:54:43;;;;;;;99.57;59.58;;;9.90;99.90;;;;;;4904390;29;20063;-92
2022/12/05 20:57:09;;;;;;;87.60;53.95;;;9.90;99.90;;;;;;4904496;29;20401;-91
2022/12/05 20:59:39;;;;;;;72.38;47.17;;;9.90;99.90;;;;;;4904144;29;20036;-93
2022/12/05 21:02:06;;;;;;;75.18;48.42;;;9.80;99.90;;;;;;4904218;29;20028;-93
2022/12/05 21:04:42;;;;;;;63.38;41.72;;;9.70;99.90;;;;;;4905124;29;20032;-93
2022/12/05 21:10:32;;;;;;;72.20;46.45;;;9.70;99.90;;;;;;4886430;29;20056;-93
2022/12/05 21:12:58;;;;;;;76.00;49.50;;;9.70;99.90;;;;;;4918272;23;20056;-94
2022/12/05 21:15:49;;;;;;;66.10;44.75;;;9.70;99.90;;;;;;4889368;29;20036;-91
2022/12/05 21:18:15;;;;;;;79.97;51.97;;;9.70;99.90;;;;;;4886741;29;20048;-93
2022/12/05 21:21:21;;;;;;;62.25;42.08;;;9.60;99.90;;;;;;4883860;29;20049;-93
2022/12/05 21:23:54;;;;;;;59.75;41.45;;;9.60;99.90;;;;;;4868522;29;20045;-91
2022/12/05 21:26:23;;;;;;;54.33;38.42;;;9.60;99.90;;;;;;4881135;29;20033;-90
2022/12/05 21:28:52;;;;;;;55.92;38.55;;;9.60;99.90;;;;;;4882152;29;20045;-91
2022/12/05 21:31:28;;;;;;;59.25;41.03;;;9.50;99.90;;;;;;4881526;29;20033;-91
2022/12/05 21:33:58;;;;;;;75.25;47.63;;;9.50;99.90;;;;;;4881332;29;20072;-92
2022/12/05 21:36:27;;;;;;;61.55;41.13;;;9.40;99.90;;;;;;4881433;29;20076;-92
2022/12/05 21:38:54;;;;;;;79.28;50.58;;;9.40;99.90;;;;;;4881115;29;20542;-93
2022/12/05 21:41:21;;;;;;;96.88;58.50;;;9.40;99.90;;;;;;4880982;29;20108;-92
2022/12/05 21:43:47;;;;;;;82.05;51.28;;;9.40;99.90;;;;;;4880883;29;20554;-92
2022/12/05 21:46:15;;;;;;;84.65;53.97;;;9.40;99.90;;;;;;4880712;29;20037;-90
2022/12/05 21:48:41;;;;;;;76.22;50.88;;;9.40;99.90;;;;;;4881316;29;20033;-91
2022/12/05 21:51:09;;;;;;;76.40;50.63;;;9.40;99.90;;;;;;4881142;29;20120;-92
2022/12/05 21:53:37;;;;;;;58.53;41.60;;;9.40;99.90;;;;;;4880984;29;20030;-91
2022/12/05 21:56:07;;;;;;;70.60;46.78;;;9.50;99.90;;;;;;4910463;29;20066;-91
2022/12/05 21:58:34;;;;;;;71.43;48.28;;;9.50;99.90;;;;;;4884809;29;20451;-90
2022/12/05 22:01:01;;;;;;;69.03;44.75;;;9.50;99.90;;;;;;4884676;29;20032;-91
2022/12/05 22:03:27;;;;;;;57.25;39.67;;;9.50;99.90;;;;;;4884689;29;20032;-91
2022/12/05 22:06:09;;;;;;;68.00;45.10;;;9.50;99.90;;;;;;4884470;29;20032;-91
2022/12/05 22:08:42;;;;;;;62.78;43.42;;;9.60;99.90;;;;;;4884990;29;20028;-91
2022/12/05 22:11:12;;;;;;;68.00;43.88;;;9.60;99.90;;;;;;4884714;29;20083;-91
2022/12/05 22:13:40;;;;;;;68.95;45.05;;;9.70;99.90;;;;;;4892810;29;20045;-91
2022/12/05 22:16:07;;;;;;;66.50;46.15;;;9.70;99.90;;;;;;4899928;29;20116;-91
2022/12/05 22:18:34;;;;;;;72.65;47.38;;;9.80;99.90;;;;;;4899810;29;20029;-92
2022/12/05 22:21:15;;;;;;;73.05;47.95;;;9.80;99.90;;;;;;4884189;29;20041;-92
2022/12/05 22:23:42;;;;;;;62.20;42.15;;;9.80;99.90;;;;;;4899793;29;20033;-93
2022/12/05 22:26:16;;;;;;;78.97;50.30;;;9.90;99.90;;;;;;4899719;29;20038;-91
2022/12/05 22:28:43;;;;;;;;;;;9.90;99.90;;;;;;4900302;29;20084;-91
2022/12/05 22:31:14;;;;;;;96.15;53.47;;;9.90;99.90;;;;;;4899733;29;19907;-91
2022/12/05 22:33:42;;;;;;;68.35;45.00;;;10.10;99.90;;;;;;4899597;29;20115;-91
2022/12/05 22:36:11;;;;;;;57.78;38.15;;;10.20;99.90;;;;;;4899495;29;20056;-91
2022/12/05 22:38:41;;;;;;;73.40;44.13;;;10.10;99.90;;;;;;4899744;29;20048;-92
2022/12/05 22:41:13;;;;;;;67.53;40.80;;;10.00;99.90;;;;;;4901305;29;20040;-91
2022/12/05 22:43:42;;;;;;;56.03;37.92;;;10.00;99.90;;;;;;4899620;29;20406;-92
2022/12/05 22:46:16;;;;;;;63.60;42.28;;;10.00;99.90;;;;;;4899467;29;20028;-92
2022/12/05 22:48:44;;;;;;;54.78;37.13;;;10.00;99.90;;;;;;4899811;29;20084;-92
2022/12/05 22:51:11;;;;;;;67.78;40.95;;;10.00;99.90;;;;;;4899453;29;20112;-90
2022/12/05 22:53:38;;;;;;;50.25;33.22;;;9.90;99.90;;;;;;4899298;29;20502;-91
2022/12/05 22:56:25;;;;;;;55.78;36.60;;;9.90;99.90;;;;;;4899267;29;20028;-92
2022/12/05 22:58:57;;;;;;;67.13;43.55;;;9.80;99.90;;;;;;4899142;29;20486;-92
2022/12/05 23:01:27;;;;;;;75.90;48.20;;;9.90;99.90;;;;;;4901339;29;20035;-92
2022/12/05 23:04:23;;;;;;;71.68;49.10;;;9.90;99.90;;;;;;4901134;29;20084;-92
2022/12/05 23:06:49;;;;;;;79.63;52.58;;;10.00;99.90;;;;;;4866210;29;20045;-92
2022/12/05 23:09:19;;;;;;;80.43;52.30;;;10.00;99.90;;;;;;4865632;29;20109;-94
2022/12/05 23:11:53;;;;;;;95.40;62.50;;;10.00;99.90;;;;;;4865226;29;20093;-93
2022/12/05 23:14:21;;;;;;;89.13;60.88;;;10.00;99.90;;;;;;4846807;29;20041;-92
2022/12/05 23:16:48;;;;;;;90.47;60.35;;;10.10;99.90;;;;;;4847695;29;20029;-93
2022/12/05 23:19:27;;;;;;;109.53;68.28;;;10.00;99.90;;;;;;4847838;29;20075;-93
2022/12/05 23:22:01;;;;;;;112.55;69.60;;;10.00;99.90;;;;;;4847501;29;20029;-92
2022/12/05 23:24:36;;;;;;;86.75;59.15;;;9.90;99.90;;;;;;4847648;29;20046;-93
2022/12/05 23:28:07;;;;;;;;;;;;;;;;;;;;;
2022/12/05 23:31:09;;;;;;;127.72;74.97;;;9.80;99.90;;;;;;4849626;29;20048;-93
2022/12/05 23:33:56;;;;;;;119.88;75.63;;;9.70;99.90;;;;;;5007511;23;20056;-92
2022/12/05 23:36:22;;;;;;;109.47;71.35;;;9.70;99.90;;;;;;4903427;29;20028;-92
2022/12/05 23:38:49;;;;;;;112.43;73.18;;;9.70;99.90;;;;;;4899294;29;20036;-92
2022/12/05 23:41:19;;;;;;;130.57;83.95;;;9.70;99.90;;;;;;4886059;29;20071;-92
2022/12/05 23:43:48;;;;;;;92.63;61.20;;;9.60;99.90;;;;;;4898729;29;20033;-91
2022/12/05 23:46:21;;;;;;;98.50;66.28;;;9.60;99.90;;;;;;4883437;29;20047;-92
2022/12/05 23:48:48;;;;;;;123.93;80.35;;;9.60;99.90;;;;;;4883388;29;20035;-93
2022/12/05 23:51:18;;;;;;;117.03;71.90;;;9.50;99.90;;;;;;4882842;29;20032;-92
2022/12/05 23:53:46;;;;;;;112.55;69.40;;;9.50;99.90;;;;;;4899289;29;20036;-92
2022/12/05 23:56:15;;;;;;;104.40;69.45;;;9.50;99.90;;;;;;4900352;29;20025;-92
